sensor_id;sensor_type;location;lat;lon;timestamp;temperature;humidity
9482;DHT22;4779;48.062;11.672;2024-02-14T00:02:24;2.70;99.90
9482;DHT22;4779;48.062;11.672;2024-02-14T00:04:51;2.60;99.90
9482;DHT22;4779;48.062;11.672;2024-02-14T00:07:19;2.60;99.90
9482;DHT22;4779;48.062;11.672;2024-02-14T00:09:46;2.60;99.90
9482;DHT22;4779;48.062;11.672;2024-02-14T00:12:13;2.50;99.90
9482;DHT22;4779;48.062;11.672;2024-02-14T00:14:40;2.60;99.90
9482;DHT22;4779;48.062;11.672;2024-02-14T00:17:09;2.60;99.90
9482;DHT22;4779;48.062;11.672;2024-02-14T00:19:41;2.60;99.90
9482;DHT22;4779;48.062;11.672;2024-02-14T00:22:08;2.60;99.90
9482;DHT22;4779;48.062;11.672;2024-02-14T00:24:35;2.50;99.90
9482;DHT22;4779;48.062;11.672;2024-02-14T00:27:02;2.50;99.90
9482;DHT22;4779;48.062;11.672;2024-02-14T00:29:30;2.50;99.90
9482;DHT22;4779;48.062;11.672;2024-02-14T00:31:59;2.50;99.90
9482;DHT22;4779;48.062;11.672;2024-02-14T00:34:28;2.60;99.90
9482;DHT22;4779;48.062;11.672;2024-02-14T00:36:55;2.60;99.90
9482;DHT22;4779;48.062;11.672;2024-02-14T00:39:22;2.70;99.90
9482;DHT22;4779;48.062;11.672;2024-02-14T00:41:49;2.70;99.90
9482;DHT22;4779;48.062;11.672;2024-02-14T00:44:18;2.70;99.90
9482;DHT22;4779;48.062;11.672;2024-02-14T00:46:45;2.70;99.90
9482;DHT22;4779;48.062;11.672;2024-02-14T00:49:12;2.70;99.90
9482;DHT22;4779;48.062;11.672;2024-02-14T00:51:40;2.70;99.90
9482;DHT22;4779;48.062;11.672;2024-02-14T00:54:08;2.70;99.90
9482;DHT22;4779;48.062;11.672;2024-02-14T00:56:34;2.70;99.90
9482;DHT22;4779;48.062;11.672;2024-02-14T00:59:02;2.70;99.90
9482;DHT22;4779;48.062;11.672;2024-02-14T01:01:29;2.80;99.90
9482;DHT22;4779;48.062;11.672;2024-02-14T01:03:56;2.80;99.90
9482;DHT22;4779;48.062;11.672;2024-02-14T01:06:23;2.80;99.90
9482;DHT22;4779;48.062;11.672;2024-02-14T01:08:52;2.80;99.90
9482;DHT22;4779;48.062;11.672;2024-02-14T01:11:19;2.90;99.90
9482;DHT22;4779;48.062;11.672;2024-02-14T01:13:46;2.90;99.90
9482;DHT22;4779;48.062;11.672;2024-02-14T01:16:13;2.90;99.90
9482;DHT22;4779;48.062;11.672;2024-02-14T01:18:40;2.90;99.90
9482;DHT22;4779;48.062;11.672;2024-02-14T01:21:07;3.00;99.90
9482;DHT22;4779;48.062;11.672;2024-02-14T01:23:34;3.00;99.90
9482;DHT22;4779;48.062;11.672;2024-02-14T01:26:03;3.00;99.90
9482;DHT22;4779;48.062;11.672;2024-02-14T01:28:30;3.00;99.90
9482;DHT22;4779;48.062;11.672;2024-02-14T01:30:57;3.00;99.90
9482;DHT22;4779;48.062;11.672;2024-02-14T01:33:24;3.10;99.90
9482;DHT22;4779;48.062;11.672;2024-02-14T01:35:51;3.10;99.90
9482;DHT22;4779;48.062;11.672;2024-02-14T01:38:18;3.10;99.90
9482;DHT22;4779;48.062;11.672;2024-02-14T01:40:45;3.10;99.90
9482;DHT22;4779;48.062;11.672;2024-02-14T01:43:13;3.10;99.90
9482;DHT22;4779;48.062;11.672;2024-02-14T01:45:41;3.10;99.90
9482;DHT22;4779;48.062;11.672;2024-02-14T01:48:09;3.10;99.90
9482;DHT22;4779;48.062;11.672;2024-02-14T01:50:36;3.10;99.90
9482;DHT22;4779;48.062;11.672;2024-02-14T01:53:06;3.10;99.90
9482;DHT22;4779;48.062;11.672;2024-02-14T01:55:34;3.10;99.90
9482;DHT22;4779;48.062;11.672;2024-02-14T01:58:01;3.10;99.90
9482;DHT22;4779;48.062;11.672;2024-02-14T02:00:31;3.10;99.90
9482;DHT22;4779;48.062;11.672;2024-02-14T02:03:00;3.10;99.90
9482;DHT22;4779;48.062;11.672;2024-02-14T02:05:27;3.10;99.90
9482;DHT22;4779;48.062;11.672;2024-02-14T02:07:54;3.10;99.90
9482;DHT22;4779;48.062;11.672;2024-02-14T02:10:21;3.10;99.90
9482;DHT22;4779;48.062;11.672;2024-02-14T02:12:51;3.00;99.90
9482;DHT22;4779;48.062;11.672;2024-02-14T02:15:18;3.00;99.90
9482;DHT22;4779;48.062;11.672;2024-02-14T02:17:46;3.00;99.90
9482;DHT22;4779;48.062;11.672;2024-02-14T02:20:18;3.00;99.90
9482;DHT22;4779;48.062;11.672;2024-02-14T02:22:47;3.10;99.90
9482;DHT22;4779;48.062;11.672;2024-02-14T02:25:15;3.20;99.90
9482;DHT22;4779;48.062;11.672;2024-02-14T02:27:43;3.10;99.90
9482;DHT22;4779;48.062;11.672;2024-02-14T02:30:10;3.20;99.90
9482;DHT22;4779;48.062;11.672;2024-02-14T02:32:39;3.20;99.90
9482;DHT22;4779;48.062;11.672;2024-02-14T02:35:07;3.20;99.90
9482;DHT22;4779;48.062;11.672;2024-02-14T02:37:35;3.20;99.90
9482;DHT22;4779;48.062;11.672;2024-02-14T02:40:04;3.20;99.90
9482;DHT22;4779;48.062;11.672;2024-02-14T02:42:33;3.20;99.90
9482;DHT22;4779;48.062;11.672;2024-02-14T02:45:00;3.20;99.90
9482;DHT22;4779;48.062;11.672;2024-02-14T02:47:27;3.20;99.90
9482;DHT22;4779;48.062;11.672;2024-02-14T02:49:55;3.30;99.90
9482;DHT22;4779;48.062;11.672;2024-02-14T02:52:23;3.20;99.90
9482;DHT22;4779;48.062;11.672;2024-02-14T02:54:50;3.20;99.90
9482;DHT22;4779;48.062;11.672;2024-02-14T02:57:19;3.20;99.90
9482;DHT22;4779;48.062;11.672;2024-02-14T02:59:46;3.20;99.90
9482;DHT22;4779;48.062;11.672;2024-02-14T03:02:14;3.10;99.90
9482;DHT22;4779;48.062;11.672;2024-02-14T03:04:41;3.10;99.90
9482;DHT22;4779;48.062;11.672;2024-02-14T03:07:08;3.10;99.90
9482;DHT22;4779;48.062;11.672;2024-02-14T03:09:35;3.10;99.90
9482;DHT22;4779;48.062;11.672;2024-02-14T03:12:03;3.20;99.90
9482;DHT22;4779;48.062;11.672;2024-02-14T03:14:31;3.20;99.90
9482;DHT22;4779;48.062;11.672;2024-02-14T03:16:59;3.30;99.90
9482;DHT22;4779;48.062;11.672;2024-02-14T03:19:28;3.20;99.90
9482;DHT22;4779;48.062;11.672;2024-02-14T03:21:56;3.20;99.90
9482;DHT22;4779;48.062;11.672;2024-02-14T03:24:23;3.20;99.90
9482;DHT22;4779;48.062;11.672;2024-02-14T03:26:51;3.20;99.90
9482;DHT22;4779;48.062;11.672;2024-02-14T03:29:19;3.20;99.90
9482;DHT22;4779;48.062;11.672;2024-02-14T03:31:48;3.20;99.90
9482;DHT22;4779;48.062;11.672;2024-02-14T03:34:15;3.20;99.90
9482;DHT22;4779;48.062;11.672;2024-02-14T03:36:42;3.20;99.90
9482;DHT22;4779;48.062;11.672;2024-02-14T03:39:09;3.20;99.90
9482;DHT22;4779;48.062;11.672;2024-02-14T03:41:36;3.20;99.90
9482;DHT22;4779;48.062;11.672;2024-02-14T03:44:04;3.20;99.90
9482;DHT22;4779;48.062;11.672;2024-02-14T03:46:32;3.10;99.90
9482;DHT22;4779;48.062;11.672;2024-02-14T03:49:03;3.10;99.90
9482;DHT22;4779;48.062;11.672;2024-02-14T03:51:30;3.10;99.90
9482;DHT22;4779;48.062;11.672;2024-02-14T03:53:57;3.10;99.90
9482;DHT22;4779;48.062;11.672;2024-02-14T03:56:24;3.00;99.90
9482;DHT22;4779;48.062;11.672;2024-02-14T03:58:52;3.00;99.90
9482;DHT22;4779;48.062;11.672;2024-02-14T04:01:19;3.00;99.90
9482;DHT22;4779;48.062;11.672;2024-02-14T04:03:46;2.90;99.90
9482;DHT22;4779;48.062;11.672;2024-02-14T04:06:16;2.90;99.90
9482;DHT22;4779;48.062;11.672;2024-02-14T04:08:43;2.90;99.90
9482;DHT22;4779;48.062;11.672;2024-02-14T04:11:11;2.80;99.90
9482;DHT22;4779;48.062;11.672;2024-02-14T04:13:39;2.80;99.90
9482;DHT22;4779;48.062;11.672;2024-02-14T04:16:06;2.80;99.90
9482;DHT22;4779;48.062;11.672;2024-02-14T04:18:34;2.70;99.90
9482;DHT22;4779;48.062;11.672;2024-02-14T04:21:01;2.70;99.90
9482;DHT22;4779;48.062;11.672;2024-02-14T04:23:31;2.60;99.90
9482;DHT22;4779;48.062;11.672;2024-02-14T04:25:58;2.60;99.90
9482;DHT22;4779;48.062;11.672;2024-02-14T04:28:25;2.60;99.90
9482;DHT22;4779;48.062;11.672;2024-02-14T04:30:52;2.60;99.90
9482;DHT22;4779;48.062;11.672;2024-02-14T04:33:21;2.50;99.90
9482;DHT22;4779;48.062;11.672;2024-02-14T04:35:48;2.50;99.90
9482;DHT22;4779;48.062;11.672;2024-02-14T04:38:16;2.50;99.90
9482;DHT22;4779;48.062;11.672;2024-02-14T04:40:45;2.40;99.90
9482;DHT22;4779;48.062;11.672;2024-02-14T04:43:13;2.40;99.90
9482;DHT22;4779;48.062;11.672;2024-02-14T04:45:41;2.30;99.90
9482;DHT22;4779;48.062;11.672;2024-02-14T04:48:09;2.40;99.90
9482;DHT22;4779;48.062;11.672;2024-02-14T04:50:36;2.40;99.90
9482;DHT22;4779;48.062;11.672;2024-02-14T04:53:03;2.30;99.90
9482;DHT22;4779;48.062;11.672;2024-02-14T04:55:30;2.40;99.90
9482;DHT22;4779;48.062;11.672;2024-02-14T04:57:58;2.40;99.90
9482;DHT22;4779;48.062;11.672;2024-02-14T05:00:26;2.50;99.90
9482;DHT22;4779;48.062;11.672;2024-02-14T05:02:53;2.50;99.90
9482;DHT22;4779;48.062;11.672;2024-02-14T05:05:20;2.60;99.90
9482;DHT22;4779;48.062;11.672;2024-02-14T05:07:47;2.60;99.90
9482;DHT22;4779;48.062;11.672;2024-02-14T05:10:14;2.60;99.90
9482;DHT22;4779;48.062;11.672;2024-02-14T05:12:41;2.60;99.90
9482;DHT22;4779;48.062;11.672;2024-02-14T05:15:10;2.60;99.90
9482;DHT22;4779;48.062;11.672;2024-02-14T05:17:41;2.60;99.90
9482;DHT22;4779;48.062;11.672;2024-02-14T05:20:09;2.60;99.90
9482;DHT22;4779;48.062;11.672;2024-02-14T05:22:36;2.60;99.90
9482;DHT22;4779;48.062;11.672;2024-02-14T05:25:05;2.60;99.90
9482;DHT22;4779;48.062;11.672;2024-02-14T05:27:33;2.60;99.90
9482;DHT22;4779;48.062;11.672;2024-02-14T05:30:00;2.60;99.90
9482;DHT22;4779;48.062;11.672;2024-02-14T05:32:32;2.60;99.90
9482;DHT22;4779;48.062;11.672;2024-02-14T05:34:59;2.60;99.90
9482;DHT22;4779;48.062;11.672;2024-02-14T05:37:29;2.50;99.90
9482;DHT22;4779;48.062;11.672;2024-02-14T05:39:56;2.50;99.90
9482;DHT22;4779;48.062;11.672;2024-02-14T05:42:23;2.50;99.90
9482;DHT22;4779;48.062;11.672;2024-02-14T05:44:50;2.50;99.90
9482;DHT22;4779;48.062;11.672;2024-02-14T05:47:18;2.50;99.90
9482;DHT22;4779;48.062;11.672;2024-02-14T05:49:47;2.50;99.90
9482;DHT22;4779;48.062;11.672;2024-02-14T05:52:14;2.50;99.90
9482;DHT22;4779;48.062;11.672;2024-02-14T05:54:41;2.50;99.90
9482;DHT22;4779;48.062;11.672;2024-02-14T05:57:09;2.50;99.90
9482;DHT22;4779;48.062;11.672;2024-02-14T05:59:36;2.50;99.90
9482;DHT22;4779;48.062;11.672;2024-02-14T06:02:03;2.60;99.90
9482;DHT22;4779;48.062;11.672;2024-02-14T06:04:31;2.50;99.90
9482;DHT22;4779;48.062;11.672;2024-02-14T06:07:00;2.60;99.90
9482;DHT22;4779;48.062;11.672;2024-02-14T06:09:27;2.50;99.90
9482;DHT22;4779;48.062;11.672;2024-02-14T06:11:53;2.50;99.90
9482;DHT22;4779;48.062;11.672;2024-02-14T06:14:20;2.60;99.90
9482;DHT22;4779;48.062;11.672;2024-02-14T06:16:48;2.60;99.90
9482;DHT22;4779;48.062;11.672;2024-02-14T06:19:14;2.60;99.90
9482;DHT22;4779;48.062;11.672;2024-02-14T06:21:41;2.60;99.90
9482;DHT22;4779;48.062;11.672;2024-02-14T06:24:10;2.70;99.90
9482;DHT22;4779;48.062;11.672;2024-02-14T06:26:39;2.80;99.90
9482;DHT22;4779;48.062;11.672;2024-02-14T06:29:06;2.80;99.90
9482;DHT22;4779;48.062;11.672;2024-02-14T06:31:33;2.80;99.90
9482;DHT22;4779;48.062;11.672;2024-02-14T06:34:00;2.80;99.90
9482;DHT22;4779;48.062;11.672;2024-02-14T06:36:27;2.70;99.90
9482;DHT22;4779;48.062;11.672;2024-02-14T06:38:54;2.80;99.90
9482;DHT22;4779;48.062;11.672;2024-02-14T06:41:22;2.80;99.90
9482;DHT22;4779;48.062;11.672;2024-02-14T06:43:49;2.80;99.90
9482;DHT22;4779;48.062;11.672;2024-02-14T06:46:16;2.90;99.90
9482;DHT22;4779;48.062;11.672;2024-02-14T06:48:43;2.90;99.90
9482;DHT22;4779;48.062;11.672;2024-02-14T06:51:10;3.00;99.90
9482;DHT22;4779;48.062;11.672;2024-02-14T06:53:37;3.00;99.90
9482;DHT22;4779;48.062;11.672;2024-02-14T06:56:05;3.00;99.90
9482;DHT22;4779;48.062;11.672;2024-02-14T06:58:34;3.10;99.90
9482;DHT22;4779;48.062;11.672;2024-02-14T07:01:01;3.10;99.90
9482;DHT22;4779;48.062;11.672;2024-02-14T07:03:28;3.10;99.90
9482;DHT22;4779;48.062;11.672;2024-02-14T07:05:55;3.20;99.90
9482;DHT22;4779;48.062;11.672;2024-02-14T07:08:22;3.30;99.90
9482;DHT22;4779;48.062;11.672;2024-02-14T07:10:51;3.30;99.90
9482;DHT22;4779;48.062;11.672;2024-02-14T07:13:18;3.40;99.90
9482;DHT22;4779;48.062;11.672;2024-02-14T07:15:47;3.40;99.90
9482;DHT22;4779;48.062;11.672;2024-02-14T07:18:14;3.50;99.90
9482;DHT22;4779;48.062;11.672;2024-02-14T07:20:42;3.50;99.90
9482;DHT22;4779;48.062;11.672;2024-02-14T07:23:09;3.60;99.90
9482;DHT22;4779;48.062;11.672;2024-02-14T07:25:36;3.70;99.90
9482;DHT22;4779;48.062;11.672;2024-02-14T07:28:03;3.70;99.90
9482;DHT22;4779;48.062;11.672;2024-02-14T07:30:33;3.80;99.90
9482;DHT22;4779;48.062;11.672;2024-02-14T07:33:02;3.80;99.90
9482;DHT22;4779;48.062;11.672;2024-02-14T07:35:29;3.80;99.90
9482;DHT22;4779;48.062;11.672;2024-02-14T07:37:56;3.90;99.90
9482;DHT22;4779;48.062;11.672;2024-02-14T07:40:23;3.90;99.90
9482;DHT22;4779;48.062;11.672;2024-02-14T07:42:51;4.00;99.90
9482;DHT22;4779;48.062;11.672;2024-02-14T07:45:18;4.00;99.90
9482;DHT22;4779;48.062;11.672;2024-02-14T07:47:45;4.10;99.90
9482;DHT22;4779;48.062;11.672;2024-02-14T07:50:13;4.10;99.90
9482;DHT22;4779;48.062;11.672;2024-02-14T07:52:42;4.10;99.90
9482;DHT22;4779;48.062;11.672;2024-02-14T07:55:09;4.10;99.90
9482;DHT22;4779;48.062;11.672;2024-02-14T07:57:38;4.20;99.90
9482;DHT22;4779;48.062;11.672;2024-02-14T08:00:06;4.20;99.90
9482;DHT22;4779;48.062;11.672;2024-02-14T08:02:34;4.30;99.90
9482;DHT22;4779;48.062;11.672;2024-02-14T08:05:01;4.40;99.90
9482;DHT22;4779;48.062;11.672;2024-02-14T08:07:35;4.50;99.90
9482;DHT22;4779;48.062;11.672;2024-02-14T08:10:02;4.60;99.90
9482;DHT22;4779;48.062;11.672;2024-02-14T08:12:30;4.70;99.90
9482;DHT22;4779;48.062;11.672;2024-02-14T08:14:57;4.80;99.90
9482;DHT22;4779;48.062;11.672;2024-02-14T08:17:29;4.80;99.90
9482;DHT22;4779;48.062;11.672;2024-02-14T08:19:56;4.80;99.90
9482;DHT22;4779;48.062;11.672;2024-02-14T08:22:23;4.90;99.90
9482;DHT22;4779;48.062;11.672;2024-02-14T08:24:53;4.90;99.90
9482;DHT22;4779;48.062;11.672;2024-02-14T08:27:22;5.00;99.90
9482;DHT22;4779;48.062;11.672;2024-02-14T08:29:49;5.10;99.90
9482;DHT22;4779;48.062;11.672;2024-02-14T08:32:16;5.20;99.90
9482;DHT22;4779;48.062;11.672;2024-02-14T08:34:43;5.30;99.90
9482;DHT22;4779;48.062;11.672;2024-02-14T08:37:10;5.40;99.90
9482;DHT22;4779;48.062;11.672;2024-02-14T08:39:37;5.50;99.90
9482;DHT22;4779;48.062;11.672;2024-02-14T08:42:06;5.50;99.90
9482;DHT22;4779;48.062;11.672;2024-02-14T08:44:34;5.60;99.90
9482;DHT22;4779;48.062;11.672;2024-02-14T08:47:01;5.60;99.90
9482;DHT22;4779;48.062;11.672;2024-02-14T08:49:28;5.70;99.90
9482;DHT22;4779;48.062;11.672;2024-02-14T08:51:55;5.70;99.90
9482;DHT22;4779;48.062;11.672;2024-02-14T08:54:22;5.70;99.90
9482;DHT22;4779;48.062;11.672;2024-02-14T08:56:49;5.80;99.90
9482;DHT22;4779;48.062;11.672;2024-02-14T08:59:20;5.90;99.90
9482;DHT22;4779;48.062;11.672;2024-02-14T09:01:47;6.00;99.90
9482;DHT22;4779;48.062;11.672;2024-02-14T09:04:14;6.00;99.90
9482;DHT22;4779;48.062;11.672;2024-02-14T09:06:41;6.10;99.90
9482;DHT22;4779;48.062;11.672;2024-02-14T09:09:08;6.20;99.90
9482;DHT22;4779;48.062;11.672;2024-02-14T09:11:35;6.30;99.90
9482;DHT22;4779;48.062;11.672;2024-02-14T09:14:02;6.50;99.90
9482;DHT22;4779;48.062;11.672;2024-02-14T09:16:33;6.50;99.90
9482;DHT22;4779;48.062;11.672;2024-02-14T09:19:00;6.60;99.90
9482;DHT22;4779;48.062;11.672;2024-02-14T09:21:27;6.60;99.90
9482;DHT22;4779;48.062;11.672;2024-02-14T09:23:56;6.70;99.90
9482;DHT22;4779;48.062;11.672;2024-02-14T09:26:23;6.80;99.90
9482;DHT22;4779;48.062;11.672;2024-02-14T09:28:50;6.90;99.90
9482;DHT22;4779;48.062;11.672;2024-02-14T09:31:18;7.10;99.90
9482;DHT22;4779;48.062;11.672;2024-02-14T09:33:48;7.50;99.70
9482;DHT22;4779;48.062;11.672;2024-02-14T09:36:15;8.30;99.20
9482;DHT22;4779;48.062;11.672;2024-02-14T09:38:42;9.00;96.60
9482;DHT22;4779;48.062;11.672;2024-02-14T09:41:14;9.90;99.90
9482;DHT22;4779;48.062;11.672;2024-02-14T09:43:44;10.40;95.60
9482;DHT22;4779;48.062;11.672;2024-02-14T09:46:13;10.30;97.70
9482;DHT22;4779;48.062;11.672;2024-02-14T09:48:41;10.30;98.20
9482;DHT22;4779;48.062;11.672;2024-02-14T09:51:11;10.10;99.00
9482;DHT22;4779;48.062;11.672;2024-02-14T09:53:39;10.00;99.50
9482;DHT22;4779;48.062;11.672;2024-02-14T09:56:09;9.90;97.50
9482;DHT22;4779;48.062;11.672;2024-02-14T09:58:37;9.90;97.60
9482;DHT22;4779;48.062;11.672;2024-02-14T10:01:04;9.90;97.10
9482;DHT22;4779;48.062;11.672;2024-02-14T10:03:32;10.10;96.40
9482;DHT22;4779;48.062;11.672;2024-02-14T10:06:01;10.20;95.70
9482;DHT22;4779;48.062;11.672;2024-02-14T10:08:29;10.20;95.30
9482;DHT22;4779;48.062;11.672;2024-02-14T10:10:57;10.10;94.50
9482;DHT22;4779;48.062;11.672;2024-02-14T10:13:27;10.00;94.30
9482;DHT22;4779;48.062;11.672;2024-02-14T10:15:55;9.90;95.70
9482;DHT22;4779;48.062;11.672;2024-02-14T10:18:23;9.70;94.70
9482;DHT22;4779;48.062;11.672;2024-02-14T10:20:54;9.50;95.80
9482;DHT22;4779;48.062;11.672;2024-02-14T10:23:21;9.40;96.40
9482;DHT22;4779;48.062;11.672;2024-02-14T10:25:50;9.50;96.40
9482;DHT22;4779;48.062;11.672;2024-02-14T10:28:20;9.60;96.40
9482;DHT22;4779;48.062;11.672;2024-02-14T10:30:47;9.70;95.50
9482;DHT22;4779;48.062;11.672;2024-02-14T10:33:16;10.00;94.50
9482;DHT22;4779;48.062;11.672;2024-02-14T10:35:43;10.80;95.40
9482;DHT22;4779;48.062;11.672;2024-02-14T10:38:11;11.80;97.40
9482;DHT22;4779;48.062;11.672;2024-02-14T10:40:38;12.60;93.10
9482;DHT22;4779;48.062;11.672;2024-02-14T10:43:07;13.40;89.80
9482;DHT22;4779;48.062;11.672;2024-02-14T10:45:35;13.80;87.50
9482;DHT22;4779;48.062;11.672;2024-02-14T10:48:05;14.50;89.70
9482;DHT22;4779;48.062;11.672;2024-02-14T10:50:34;15.20;86.90
9482;DHT22;4779;48.062;11.672;2024-02-14T10:53:04;16.20;85.70
9482;DHT22;4779;48.062;11.672;2024-02-14T10:58:01;17.70;99.90
9482;DHT22;4779;48.062;11.672;2024-02-14T11:00:31;18.10;93.80
9482;DHT22;4779;48.062;11.672;2024-02-14T11:02:59;18.30;76.80
9482;DHT22;4779;48.062;11.672;2024-02-14T11:05:27;17.80;78.80
9482;DHT22;4779;48.062;11.672;2024-02-14T11:07:54;17.20;77.30
9482;DHT22;4779;48.062;11.672;2024-02-14T11:10:22;17.40;78.30
9482;DHT22;4779;48.062;11.672;2024-02-14T11:12:49;17.80;75.00
9482;DHT22;4779;48.062;11.672;2024-02-14T11:15:19;17.80;76.10
9482;DHT22;4779;48.062;11.672;2024-02-14T11:17:48;18.20;73.10
9482;DHT22;4779;48.062;11.672;2024-02-14T11:20:18;18.70;76.40
9482;DHT22;4779;48.062;11.672;2024-02-14T11:22:55;18.40;72.60
9482;DHT22;4779;48.062;11.672;2024-02-14T11:25:27;18.00;74.20
9482;DHT22;4779;48.062;11.672;2024-02-14T11:27:55;18.10;72.20
9482;DHT22;4779;48.062;11.672;2024-02-14T11:30:29;18.10;73.10
9482;DHT22;4779;48.062;11.672;2024-02-14T11:33:13;17.40;73.60
9482;DHT22;4779;48.062;11.672;2024-02-14T11:35:40;16.90;77.00
9482;DHT22;4779;48.062;11.672;2024-02-14T11:38:08;16.90;77.40
9482;DHT22;4779;48.062;11.672;2024-02-14T11:40:36;17.10;74.40
9482;DHT22;4779;48.062;11.672;2024-02-14T11:43:04;17.80;74.50
9482;DHT22;4779;48.062;11.672;2024-02-14T11:45:31;17.80;76.40
9482;DHT22;4779;48.062;11.672;2024-02-14T11:47:58;18.00;74.00
9482;DHT22;4779;48.062;11.672;2024-02-14T11:50:27;17.90;73.10
9482;DHT22;4779;48.062;11.672;2024-02-14T11:52:55;17.50;76.10
9482;DHT22;4779;48.062;11.672;2024-02-14T11:55:27;16.70;77.80
9482;DHT22;4779;48.062;11.672;2024-02-14T11:57:55;16.00;79.80
9482;DHT22;4779;48.062;11.672;2024-02-14T12:00:22;15.20;80.50
9482;DHT22;4779;48.062;11.672;2024-02-14T12:02:50;14.70;83.60
9482;DHT22;4779;48.062;11.672;2024-02-14T12:05:17;14.30;86.80
9482;DHT22;4779;48.062;11.672;2024-02-14T12:07:46;14.00;87.30
9482;DHT22;4779;48.062;11.672;2024-02-14T12:10:13;13.80;87.60
9482;DHT22;4779;48.062;11.672;2024-02-14T12:12:45;13.60;90.00
9482;DHT22;4779;48.062;11.672;2024-02-14T12:15:12;13.40;90.20
9482;DHT22;4779;48.062;11.672;2024-02-14T12:17:41;13.20;89.00
9482;DHT22;4779;48.062;11.672;2024-02-14T12:20:09;13.00;89.10
9482;DHT22;4779;48.062;11.672;2024-02-14T12:22:39;12.90;91.10
9482;DHT22;4779;48.062;11.672;2024-02-14T12:25:08;12.90;89.90
9482;DHT22;4779;48.062;11.672;2024-02-14T12:27:36;12.90;89.90
9482;DHT22;4779;48.062;11.672;2024-02-14T12:30:04;12.80;90.20
9482;DHT22;4779;48.062;11.672;2024-02-14T12:32:32;12.80;90.10
9482;DHT22;4779;48.062;11.672;2024-02-14T12:34:59;12.90;89.90
9482;DHT22;4779;48.062;11.672;2024-02-14T12:37:26;13.40;90.40
9482;DHT22;4779;48.062;11.672;2024-02-14T12:39:53;13.70;90.10
9482;DHT22;4779;48.062;11.672;2024-02-14T12:42:22;13.80;88.80
9482;DHT22;4779;48.062;11.672;2024-02-14T12:44:52;13.80;88.00
9482;DHT22;4779;48.062;11.672;2024-02-14T12:47:19;13.60;88.10
9482;DHT22;4779;48.062;11.672;2024-02-14T12:49:48;13.50;87.90
9482;DHT22;4779;48.062;11.672;2024-02-14T12:52:15;13.50;86.00
9482;DHT22;4779;48.062;11.672;2024-02-14T12:54:43;13.40;87.00
9482;DHT22;4779;48.062;11.672;2024-02-14T12:57:10;13.60;84.50
9482;DHT22;4779;48.062;11.672;2024-02-14T12:59:39;14.10;86.70
9482;DHT22;4779;48.062;11.672;2024-02-14T13:02:07;14.30;84.00
9482;DHT22;4779;48.062;11.672;2024-02-14T13:04:34;14.30;83.20
9482;DHT22;4779;48.062;11.672;2024-02-14T13:07:01;14.20;83.30
9482;DHT22;4779;48.062;11.672;2024-02-14T13:09:28;13.90;83.00
9482;DHT22;4779;48.062;11.672;2024-02-14T13:11:55;13.80;85.60
9482;DHT22;4779;48.062;11.672;2024-02-14T13:14:23;13.40;88.90
9482;DHT22;4779;48.062;11.672;2024-02-14T13:16:51;12.90;91.80
9482;DHT22;4779;48.062;11.672;2024-02-14T13:19:19;12.70;92.20
9482;DHT22;4779;48.062;11.672;2024-02-14T13:21:46;12.60;92.30
9482;DHT22;4779;48.062;11.672;2024-02-14T13:24:13;12.50;93.20
9482;DHT22;4779;48.062;11.672;2024-02-14T13:26:40;12.40;94.50
9482;DHT22;4779;48.062;11.672;2024-02-14T13:29:07;12.30;95.20
9482;DHT22;4779;48.062;11.672;2024-02-14T13:31:34;12.30;94.00
9482;DHT22;4779;48.062;11.672;2024-02-14T13:34:03;12.20;94.80
9482;DHT22;4779;48.062;11.672;2024-02-14T13:36:30;12.30;94.60
9482;DHT22;4779;48.062;11.672;2024-02-14T13:38:58;12.30;94.00
9482;DHT22;4779;48.062;11.672;2024-02-14T13:41:26;12.40;93.60
9482;DHT22;4779;48.062;11.672;2024-02-14T13:43:53;12.40;94.50
9482;DHT22;4779;48.062;11.672;2024-02-14T13:46:20;12.50;93.90
9482;DHT22;4779;48.062;11.672;2024-02-14T13:48:48;12.50;94.80
9482;DHT22;4779;48.062;11.672;2024-02-14T13:51:16;12.60;93.90
9482;DHT22;4779;48.062;11.672;2024-02-14T13:53:43;12.60;94.00
9482;DHT22;4779;48.062;11.672;2024-02-14T13:56:11;12.70;93.60
9482;DHT22;4779;48.062;11.672;2024-02-14T13:58:38;12.70;93.80
9482;DHT22;4779;48.062;11.672;2024-02-14T14:01:05;12.80;93.10
9482;DHT22;4779;48.062;11.672;2024-02-14T14:03:33;12.80;93.20
9482;DHT22;4779;48.062;11.672;2024-02-14T14:06:02;12.90;92.40
9482;DHT22;4779;48.062;11.672;2024-02-14T14:08:33;13.00;91.70
9482;DHT22;4779;48.062;11.672;2024-02-14T14:11:02;13.30;91.10
9482;DHT22;4779;48.062;11.672;2024-02-14T14:13:29;13.50;89.00
9482;DHT22;4779;48.062;11.672;2024-02-14T14:15:56;13.40;88.30
9482;DHT22;4779;48.062;11.672;2024-02-14T14:18:23;13.20;87.70
9482;DHT22;4779;48.062;11.672;2024-02-14T14:20:50;13.00;89.00
9482;DHT22;4779;48.062;11.672;2024-02-14T14:23:18;12.80;89.80
9482;DHT22;4779;48.062;11.672;2024-02-14T14:25:46;12.70;88.90
9482;DHT22;4779;48.062;11.672;2024-02-14T14:28:13;12.70;90.30
9482;DHT22;4779;48.062;11.672;2024-02-14T14:37:47;12.70;90.80
9482;DHT22;4779;48.062;11.672;2024-02-14T14:40:15;12.70;90.90
9482;DHT22;4779;48.062;11.672;2024-02-14T14:42:43;12.60;91.40
9482;DHT22;4779;48.062;11.672;2024-02-14T14:45:10;12.60;91.80
9482;DHT22;4779;48.062;11.672;2024-02-14T14:47:37;12.60;92.00
9482;DHT22;4779;48.062;11.672;2024-02-14T14:50:05;12.60;91.80
9482;DHT22;4779;48.062;11.672;2024-02-14T14:52:32;12.60;92.40
9482;DHT22;4779;48.062;11.672;2024-02-14T14:55:00;12.60;93.00
9482;DHT22;4779;48.062;11.672;2024-02-14T14:57:27;12.60;93.30
9482;DHT22;4779;48.062;11.672;2024-02-14T14:59:55;12.60;93.30
9482;DHT22;4779;48.062;11.672;2024-02-14T15:02:22;12.60;93.20
9482;DHT22;4779;48.062;11.672;2024-02-14T15:04:50;12.70;93.90
9482;DHT22;4779;48.062;11.672;2024-02-14T15:07:17;12.70;93.60
9482;DHT22;4779;48.062;11.672;2024-02-14T15:09:45;12.80;93.60
9482;DHT22;4779;48.062;11.672;2024-02-14T15:12:12;12.80;93.60
9482;DHT22;4779;48.062;11.672;2024-02-14T15:14:39;12.80;94.30
9482;DHT22;4779;48.062;11.672;2024-02-14T15:17:08;12.70;94.70
9482;DHT22;4779;48.062;11.672;2024-02-14T15:19:35;12.60;95.00
9482;DHT22;4779;48.062;11.672;2024-02-14T15:22:02;12.60;95.00
9482;DHT22;4779;48.062;11.672;2024-02-14T15:24:29;12.40;95.50
9482;DHT22;4779;48.062;11.672;2024-02-14T15:26:56;12.30;95.40
9482;DHT22;4779;48.062;11.672;2024-02-14T15:29:26;12.20;95.90
9482;DHT22;4779;48.062;11.672;2024-02-14T15:32:12;12.00;96.40
9482;DHT22;4779;48.062;11.672;2024-02-14T15:34:56;11.90;96.90
9482;DHT22;4779;48.062;11.672;2024-02-14T15:37:24;11.80;97.20
9482;DHT22;4779;48.062;11.672;2024-02-14T15:39:51;11.80;97.40
9482;DHT22;4779;48.062;11.672;2024-02-14T15:42:24;11.70;97.80
9482;DHT22;4779;48.062;11.672;2024-02-14T15:44:52;11.60;98.40
9482;DHT22;4779;48.062;11.672;2024-02-14T15:47:23;11.50;98.50
9482;DHT22;4779;48.062;11.672;2024-02-14T15:49:50;11.50;98.70
9482;DHT22;4779;48.062;11.672;2024-02-14T15:52:17;11.50;98.10
9482;DHT22;4779;48.062;11.672;2024-02-14T15:54:45;11.50;98.30
9482;DHT22;4779;48.062;11.672;2024-02-14T15:57:13;11.50;98.40
9482;DHT22;4779;48.062;11.672;2024-02-14T15:59:40;11.30;98.60
9482;DHT22;4779;48.062;11.672;2024-02-14T16:02:07;11.30;98.80
9482;DHT22;4779;48.062;11.672;2024-02-14T16:04:35;11.20;98.80
9482;DHT22;4779;48.062;11.672;2024-02-14T16:07:03;11.20;99.20
9482;DHT22;4779;48.062;11.672;2024-02-14T16:09:30;11.10;99.50